Time;durP1;ratioP1;P1;durP2;ratioP2;P2;SDS_P1;SDS_P2;PMS_P1;PMS_P2;Temp;Humidity;BMP_temperature;BMP_pressure;BME280_temperature;BME280_humidity;BME280_pressure;Samples;Min_cycle;Max_cycle;Signal;HPM_P1;HPM_P2
2023/06/24 00:00:31;;;;;;;8.98;7.25;;;15.80;99.90;;;-144.05;85.84;56891.31;5073234;28;20029;-83
2023/06/24 00:02:57;;;;;;;11.10;7.38;;;15.70;99.90;;;-144.05;85.84;56882.81;5071729;28;20131;-84
2023/06/24 00:05:23;;;;;;;9.85;7.60;;;15.70;99.90;;;-144.05;85.94;56878.56;5070981;28;20116;-85
2023/06/24 00:07:49;;;;;;;11.20;8.32;;;15.70;99.90;;;-144.05;86.20;56891.31;5070863;28;20112;-84
2023/06/24 00:10:15;;;;;;;14.30;8.55;;;15.70;99.90;;;-144.05;86.84;56882.81;5070972;28;20466;-86
2023/06/24 00:12:41;;;;;;;8.73;7.82;;;15.70;99.90;;;-144.05;86.62;56910.44;5073199;28;20066;-83
2023/06/24 00:15:09;;;;;;;11.05;7.65;;;15.60;99.90;;;-144.05;86.67;56878.56;5072609;28;20033;-83
2023/06/24 00:17:36;;;;;;;10.27;8.10;;;15.70;99.90;;;-144.05;87.16;56855.22;5072437;28;20028;-84
2023/06/24 00:20:05;;;;;;;11.43;8.38;;;15.60;99.90;;;-144.05;87.20;56887.06;5071513;28;20030;-85
2023/06/24 00:22:30;;;;;;;10.93;8.98;;;15.60;99.90;;;-144.05;87.64;56904.06;5072816;28;20433;-84
2023/06/24 00:24:56;;;;;;;11.65;9.55;;;15.60;99.90;;;-144.05;88.08;56904.06;5072436;28;20270;-84
2023/06/24 00:27:22;;;;;;;12.88;8.88;;;15.60;99.90;;;-144.05;88.20;56887.06;5074197;28;20035;-85
2023/06/24 00:29:48;;;;;;;11.95;8.82;;;15.60;99.90;;;-144.05;88.25;56904.06;5075401;28;20020;-84
2023/06/24 00:32:14;;;;;;;12.25;8.52;;;15.60;99.90;;;-144.05;88.20;56872.19;5076038;28;20114;-85
2023/06/24 00:34:43;;;;;;;11.80;8.27;;;15.60;99.90;;;-144.05;88.44;56861.56;5074760;28;20598;-84
2023/06/24 00:37:09;;;;;;;14.35;9.50;;;15.60;99.90;;;-144.05;88.89;56880.69;5075545;28;20032;-86
2023/06/24 00:39:35;;;;;;;13.68;8.85;;;15.60;99.90;;;-144.05;89.41;56882.81;5076129;28;20047;-86
2023/06/24 00:42:01;;;;;;;13.13;9.55;;;15.60;99.90;;;-144.05;88.81;56904.06;5074751;28;20475;-83
2023/06/24 00:44:27;;;;;;;14.65;9.57;;;15.60;99.90;;;-144.05;88.54;56865.81;5075737;28;20060;-84
2023/06/24 00:46:54;;;;;;;12.65;8.90;;;15.60;99.90;;;-144.05;88.40;56876.44;5074609;28;20025;-85
2023/06/24 00:49:20;;;;;;;10.25;8.23;;;15.60;99.90;;;-144.05;87.98;56884.94;5076393;28;20047;-85
2023/06/24 00:51:50;;;;;;;10.25;8.00;;;15.60;99.90;;;-144.05;87.76;56876.44;5095748;28;20471;-86
2023/06/24 00:54:19;;;;;;;10.60;7.78;;;15.60;99.90;;;-144.05;87.68;56884.94;5095395;28;20024;-84
2023/06/24 00:56:46;;;;;;;10.23;7.88;;;15.60;99.90;;;-144.05;87.35;56880.69;5094930;28;20028;-86
2023/06/24 00:59:17;;;;;;;8.90;7.47;;;15.60;99.90;;;-144.05;87.40;56891.31;5094625;28;20079;-83
2023/06/24 01:01:45;;;;;;;9.00;7.20;;;15.60;99.90;;;-144.05;87.12;56863.69;5094815;28;20062;-84
2023/06/24 01:04:11;;;;;;;10.52;7.65;;;15.60;99.90;;;-144.05;86.88;56870.06;5094874;28;20028;-84
2023/06/24 01:06:43;;;;;;;10.15;7.45;;;15.50;99.90;;;-144.05;87.02;56859.47;5095908;28;20123;-85
2023/06/24 01:09:09;;;;;;;9.25;7.75;;;15.50;99.90;;;-144.05;86.73;56908.31;5095941;28;20031;-85
2023/06/24 01:11:35;;;;;;;9.38;7.10;;;15.40;99.90;;;-144.05;86.75;56908.31;5094350;28;20483;-84
2023/06/24 01:14:01;;;;;;;9.25;7.43;;;15.40;99.90;;;-144.05;87.16;56891.31;5095396;28;20039;-86
2023/06/24 01:17:18;;;;;;;9.43;7.50;;;15.30;99.90;;;-144.05;87.10;56857.34;5101539;28;20033;-86
2023/06/24 01:20:09;;;;;;;9.73;7.60;;;15.30;99.90;;;-144.05;87.95;56855.22;5079793;28;20492;-85
2023/06/24 01:22:46;;;;;;;9.88;8.10;;;15.30;99.90;;;-144.05;88.20;56870.06;5095933;28;20241;-85
2023/06/24 01:26:06;;;;;;;9.40;8.05;;;15.20;99.90;;;-144.05;89.01;56870.06;5095081;28;20035;-85
2023/06/24 01:28:59;;;;;;;11.32;8.43;;;15.20;99.90;;;-144.05;88.95;56895.56;5096384;28;20161;-86
2023/06/24 01:32:01;;;;;;;13.65;8.68;;;15.20;99.90;;;-144.05;89.36;56878.56;5095675;28;20024;-85
2023/06/24 01:34:52;;;;;;;11.38;8.95;;;15.20;99.90;;;-144.05;89.40;56895.56;5095722;28;20142;-87
2023/06/24 01:37:32;;;;;;;12.45;8.70;;;15.10;99.90;;;-144.05;89.48;56889.19;5094955;28;20535;-85
2023/06/24 01:40:26;;;;;;;11.95;9.25;;;15.10;99.90;;;-144.05;89.34;56872.19;5096048;28;20097;-84
2023/06/24 01:42:57;;;;;;;13.20;9.32;;;15.10;99.90;;;-144.05;89.63;56882.81;5097079;28;20169;-85
2023/06/24 01:45:37;;;;;;;13.43;9.13;;;15.20;99.90;;;-144.05;89.71;56895.56;5094810;28;20032;-84
2023/06/24 01:48:34;;;;;;;11.70;9.15;;;15.30;99.90;;;-144.05;89.58;56872.19;5094608;28;20146;-86
2023/06/24 01:51:09;;;;;;;13.18;8.80;;;15.30;99.90;;;-144.05;88.49;56895.56;5082959;28;20047;-84
2023/06/24 01:53:44;;;;;;;15.15;9.20;;;15.30;99.90;;;-144.05;88.48;56870.06;5074588;28;20034;-85
2023/06/24 01:56:15;;;;;;;12.60;8.60;;;15.30;99.90;;;-144.05;88.47;56889.19;5075631;28;20031;-84
2023/06/24 01:58:45;;;;;;;12.50;9.50;;;15.20;99.90;;;-144.05;88.85;56914.69;5073956;28;20462;-85
2023/06/24 02:01:13;;;;;;;15.57;9.38;;;15.20;99.90;;;-144.05;88.70;56863.69;5074141;28;20497;-84
2023/06/24 02:03:42;;;;;;;12.52;8.95;;;15.20;99.90;;;-144.05;88.48;56876.44;5073850;28;20033;-84
2023/06/24 02:06:09;;;;;;;12.13;8.48;;;15.30;99.90;;;-144.05;88.62;56889.19;5075162;28;20102;-84
2023/06/24 02:08:41;;;;;;;17.85;9.65;;;15.20;99.90;;;-144.05;89.01;56870.06;5075306;28;20023;-86
2023/06/24 02:11:10;;;;;;;10.90;8.30;;;15.10;99.90;;;-144.05;88.94;56878.56;5074704;28;20056;-86
2023/06/24 02:13:40;;;;;;;10.10;8.80;;;15.10;99.90;;;-144.05;89.14;56893.44;5074029;28;20059;-86
2023/06/24 02:16:10;;;;;;;11.32;8.82;;;15.10;99.90;;;-144.05;89.03;56884.94;5075026;28;20043;-84
2023/06/24 02:18:43;;;;;;;12.07;9.05;;;15.00;99.90;;;-144.05;88.85;56889.19;5073351;28;20035;-86
2023/06/24 02:21:11;;;;;;;18.42;8.75;;;15.10;99.90;;;-144.05;88.85;56867.94;5090578;28;20033;-85
2023/06/24 02:23:39;;;;;;;13.13;9.05;;;15.00;99.90;;;-144.05;89.41;56882.81;5075176;28;20500;-86
2023/06/24 02:26:07;;;;;;;11.35;8.75;;;15.00;99.90;;;-144.05;89.07;56904.06;5074654;28;20307;-86
2023/06/24 02:28:35;;;;;;;11.65;9.00;;;15.00;99.90;;;-144.05;88.64;56884.94;5090145;28;20059;-85
2023/06/24 02:31:02;;;;;;;12.82;8.93;;;15.00;99.90;;;-144.05;88.48;56897.69;5073491;28;20025;-86
2023/06/24 02:33:29;;;;;;;12.52;8.18;;;15.00;99.90;;;-144.05;88.51;56872.19;5073454;28;20047;-85
2023/06/24 02:35:55;;;;;;;12.88;8.52;;;14.90;99.90;;;-144.05;88.96;56861.56;5073359;28;20130;-85
2023/06/24 02:38:21;;;;;;;13.73;9.48;;;14.90;99.90;;;-144.05;88.93;56884.94;5073050;28;20075;-86
2023/06/24 02:40:49;;;;;;;11.05;8.77;;;14.90;99.90;;;-144.05;88.68;56870.06;5072903;28;20497;-85
2023/06/24 02:43:16;;;;;;;12.75;8.65;;;14.90;99.90;;;-144.05;88.87;56908.31;5072881;28;20082;-85
2023/06/24 02:45:44;;;;;;;9.95;8.43;;;14.90;99.90;;;-144.05;88.75;56895.56;5072565;28;20348;-85
2023/06/24 02:48:12;;;;;;;11.00;8.32;;;14.90;99.90;;;-144.05;88.63;56882.81;5072369;28;20051;-84
2023/06/24 02:50:40;;;;;;;14.68;9.15;;;14.90;99.90;;;-144.05;88.84;56891.31;5082921;28;20421;-84
2023/06/24 02:53:08;;;;;;;12.15;8.90;;;14.90;99.90;;;-144.05;88.85;56874.31;5093944;28;20447;-85
2023/06/24 02:55:35;;;;;;;13.23;8.88;;;15.00;99.90;;;-144.05;88.58;56887.06;5092833;28;20445;-85
2023/06/24 02:58:07;;;;;;;10.88;8.68;;;15.00;99.90;;;-144.05;88.55;56872.19;5091256;28;20059;-83
2023/06/24 03:00:37;;;;;;;12.27;8.98;;;15.00;99.90;;;-144.05;88.45;56867.94;5092728;28;20028;-84
2023/06/24 03:03:06;;;;;;;13.35;8.98;;;15.00;99.90;;;-144.05;88.42;56910.44;5091517;28;20038;-84
2023/06/24 03:05:35;;;;;;;11.45;8.75;;;15.00;99.90;;;-144.05;88.73;56904.06;5092565;28;20641;-82
2023/06/24 03:08:03;;;;;;;11.23;9.15;;;15.00;99.90;;;-144.05;88.93;56895.56;5093723;28;20433;-84
2023/06/24 03:10:29;;;;;;;10.93;8.52;;;15.00;99.90;;;-144.05;88.41;56872.19;5092161;28;20031;-84
2023/06/24 03:12:55;;;;;;;12.38;8.45;;;15.10;99.90;;;-144.05;88.11;56906.19;5091792;28;20020;-84
2023/06/24 03:15:21;;;;;;;9.07;7.30;;;15.10;99.90;;;-144.05;88.14;56870.06;5092074;28;20058;-84
2023/06/24 03:17:47;;;;;;;11.38;8.15;;;15.20;99.90;;;-144.05;87.69;56912.56;5093715;28;20040;-85
2023/06/24 03:20:13;;;;;;;11.07;8.02;;;15.10;99.90;;;-144.05;87.76;56865.81;5095722;28;20106;-86
2023/06/24 03:22:39;;;;;;;11.00;8.35;;;15.10;99.90;;;-144.05;87.87;56891.31;5093353;28;20058;-84
2023/06/24 03:25:05;;;;;;;8.40;7.50;;;15.10;99.90;;;-144.05;87.58;56887.06;5095082;28;20369;-85
2023/06/24 03:27:31;;;;;;;9.38;7.28;;;15.00;99.90;;;-144.05;87.80;56889.19;5094020;28;20085;-85
2023/06/24 03:29:57;;;;;;;15.73;8.35;;;15.00;99.90;;;-144.05;87.99;56904.06;5093580;28;20391;-84
2023/06/24 03:32:23;;;;;;;10.27;8.15;;;15.00;99.90;;;-144.05;88.12;56874.31;5094471;28;20169;-85
2023/06/24 03:34:49;;;;;;;11.90;8.57;;;15.10;99.90;;;-144.05;88.03;56867.94;5092714;28;20039;-85
2023/06/24 03:37:15;;;;;;;11.05;8.98;;;15.00;99.90;;;-144.05;88.20;56882.81;5093539;28;20035;-85
2023/06/24 03:39:41;;;;;;;13.63;8.80;;;15.10;99.90;;;-144.05;88.16;56887.06;5092688;28;20502;-84
2023/06/24 03:42:07;;;;;;;12.43;8.15;;;15.10;99.90;;;-144.05;87.63;56889.19;5092954;28;20024;-85
2023/06/24 03:44:33;;;;;;;11.75;7.53;;;15.10;99.90;;;-144.05;87.33;56904.06;5095174;28;20097;-84
2023/06/24 03:46:59;;;;;;;11.15;8.02;;;15.10;99.90;;;-144.05;87.23;56878.56;5091924;28;20028;-85
2023/06/24 03:49:25;;;;;;;14.82;8.88;;;15.10;99.90;;;-144.05;87.48;56908.31;5092146;28;20074;-84
2023/06/24 03:51:50;;;;;;;11.40;8.85;;;15.10;99.90;;;-144.05;87.93;56874.31;5072749;28;20040;-87
2023/06/24 03:54:16;;;;;;;13.43;8.10;;;15.20;99.90;;;-144.05;87.50;56897.69;5072139;28;20024;-86
2023/06/24 03:56:42;;;;;;;12.23;8.00;;;15.30;99.90;;;-144.05;87.08;56904.06;5073060;28;20032;-86
2023/06/24 03:59:08;;;;;;;12.63;8.45;;;15.30;99.90;;;-144.05;86.39;56882.81;5074372;28;20369;-84
2023/06/24 04:01:34;;;;;;;11.00;8.25;;;15.40;99.90;;;-144.05;86.14;56874.31;5073854;28;20039;-85
2023/06/24 04:04:04;;;;;;;11.15;7.82;;;15.50;99.90;;;-144.05;85.66;56908.31;5077652;28;20036;-87
2023/06/24 04:06:30;;;;;;;10.32;7.53;;;15.60;99.90;;;-144.05;85.39;56908.31;5077800;28;20029;-86
2023/06/24 04:08:56;;;;;;;9.38;6.88;;;15.70;99.90;;;-144.05;85.23;56908.31;5076941;28;20020;-85
2023/06/24 04:11:21;;;;;;;8.05;6.88;;;15.70;99.90;;;-144.05;85.23;56901.94;5076057;28;20024;-85
2023/06/24 04:13:48;;;;;;;8.88;7.80;;;15.80;99.90;;;-144.05;85.02;56921.06;5076170;28;20083;-84
2023/06/24 04:16:14;;;;;;;11.65;7.28;;;15.80;99.90;;;-144.05;84.91;56882.81;5074864;28;20052;-86
2023/06/24 04:18:40;;;;;;;13.07;6.43;;;15.80;99.90;;;-144.05;84.69;56889.19;5075993;28;20080;-85
2023/06/24 04:21:07;;;;;;;10.35;6.35;;;15.80;99.90;;;-144.05;84.61;56899.81;5075315;28;20060;-84
2023/06/24 04:23:33;;;;;;;9.85;7.13;;;15.80;99.90;;;-144.05;84.29;56899.81;5074977;28;20037;-85
2023/06/24 04:25:59;;;;;;;10.20;7.15;;;15.80;99.90;;;-144.05;84.29;56916.81;5075150;28;20032;-86
2023/06/24 04:28:25;;;;;;;9.32;7.50;;;15.80;99.90;;;-144.05;84.32;56876.44;5074374;28;20503;-83
2023/06/24 04:30:52;;;;;;;11.18;8.27;;;15.70;99.90;;;-144.05;84.13;56893.44;5075285;28;20031;-84
2023/06/24 04:33:18;;;;;;;10.32;7.53;;;15.80;99.90;;;-144.05;83.78;56882.81;5075399;28;20032;-85
2023/06/24 04:35:44;;;;;;;9.18;7.15;;;15.80;99.90;;;-144.05;83.14;56884.94;5075675;28;20476;-86
2023/06/24 04:38:10;;;;;;;10.32;7.95;;;15.90;99.90;;;-144.05;82.98;56906.19;5078135;28;20029;-83
2023/06/24 04:40:36;;;;;;;12.82;8.07;;;16.00;99.90;;;-144.05;81.91;56878.56;5076314;28;20024;-85
2023/06/24 04:43:02;;;;;;;10.88;8.00;;;16.10;99.90;;;-144.05;80.34;56931.66;5075004;28;20028;-85
2023/06/24 04:45:28;;;;;;;14.32;7.00;;;16.30;99.90;;;-144.05;79.12;56893.44;5074953;28;20039;-84
2023/06/24 04:47:54;;;;;;;9.88;7.18;;;16.40;99.90;;;-144.05;78.19;56914.69;5074819;28;20447;-86
2023/06/24 04:50:20;;;;;;;11.52;7.75;;;16.60;99.90;;;-144.05;77.24;56916.81;5080525;28;20020;-84
2023/06/24 04:52:56;;;;;;;9.55;6.82;;;16.80;99.90;;;-144.05;76.59;56910.44;5095386;28;20099;-84
2023/06/24 04:55:23;;;;;;;8.50;6.93;;;17.00;99.90;;;-144.05;75.87;56904.06;5097965;28;20024;-84
2023/06/24 04:57:48;;;;;;;9.23;6.60;;;17.20;99.90;;;-144.05;75.33;56884.94;5094159;28;20024;-85
2023/06/24 05:00:15;;;;;;;10.00;6.72;;;17.40;99.90;;;-144.05;74.00;56889.19;5092547;28;20031;-84
2023/06/24 05:02:41;;;;;;;9.73;6.47;;;17.50;99.90;;;-144.05;74.49;56916.81;5093309;28;20036;-85
2023/06/24 05:05:07;;;;;;;9.80;6.55;;;17.60;99.90;;;-144.05;74.69;56895.56;5093332;28;20422;-85
2023/06/24 05:07:33;;;;;;;15.25;7.13;;;17.70;99.90;;;-144.05;75.04;56912.56;5094302;28;20028;-84
2023/06/24 05:09:59;;;;;;;7.78;6.28;;;17.70;99.90;;;-144.05;75.45;56906.19;5094672;28;20020;-85
2023/06/24 05:12:25;;;;;;;12.13;6.75;;;17.70;99.90;;;-144.05;76.03;56908.31;5094678;28;20028;-83
2023/06/24 05:14:52;;;;;;;8.80;6.90;;;17.70;99.90;;;-144.05;75.45;56904.06;5096737;28;20024;-83
2023/06/24 05:17:19;;;;;;;7.50;5.88;;;17.70;99.90;;;-144.05;75.74;56916.81;5099538;28;20035;-87
2023/06/24 05:19:45;;;;;;;7.85;5.95;;;17.70;99.90;;;-144.05;75.39;56904.06;5099889;28;20024;-86
2023/06/24 05:22:11;;;;;;;9.80;6.90;;;17.70;99.90;;;-144.05;75.20;56906.19;5106943;28;20138;-88
2023/06/24 05:24:37;;;;;;;8.98;6.18;;;17.80;99.90;;;-144.05;74.36;56921.06;5106391;28;20061;-86
2023/06/24 05:27:07;;;;;;;9.50;6.22;;;17.90;99.90;;;-144.05;74.26;56910.44;5106217;28;20052;-85
2023/06/24 05:29:34;;;;;;;7.40;5.43;;;18.10;99.90;;;-144.05;73.84;56908.31;5103635;28;20044;-86
2023/06/24 05:32:03;;;;;;;7.55;5.65;;;18.30;99.90;;;-144.05;73.41;56908.31;5100497;28;20383;-87
2023/06/24 05:34:30;;;;;;;8.30;6.68;;;18.50;99.90;;;-144.05;72.50;56906.19;5100167;28;20077;-86
2023/06/24 05:36:56;;;;;;;9.77;6.38;;;18.80;99.90;;;-144.05;70.47;56889.19;5099634;28;20078;-85
2023/06/24 05:39:22;;;;;;;8.13;6.03;;;19.10;99.90;;;-144.05;68.93;56933.78;5101408;28;20028;-86
2023/06/24 05:41:51;;;;;;;8.82;6.05;;;19.50;99.90;;;-144.05;66.93;56921.06;5098017;28;20036;-85
2023/06/24 05:44:18;;;;;;;8.15;5.90;;;19.80;99.90;;;-144.05;65.12;56933.78;5099442;28;20028;-83
2023/06/24 05:46:45;;;;;;;9.27;5.68;;;20.30;99.90;;;-144.05;61.96;56929.53;5100855;28;20431;-84
2023/06/24 05:49:11;;;;;;;9.27;5.38;;;20.50;99.90;;;-144.05;60.58;56944.41;5100804;28;20375;-87
2023/06/24 05:51:37;;;;;;;7.70;5.20;;;20.60;99.90;;;-144.05;60.97;56944.41;5098988;28;20028;-84
2023/06/24 05:54:03;;;;;;;10.57;5.47;;;20.50;99.90;;;-144.05;60.70;56929.53;5115905;28;20500;-83
2023/06/24 05:56:29;;;;;;;8.38;5.60;;;20.40;99.90;;;-144.05;61.42;56957.16;5101433;28;20032;-84
2023/06/24 05:58:55;;;;;;;8.80;5.43;;;20.40;99.90;;;-144.05;61.21;56950.78;5099351;28;20071;-86
2023/06/24 06:01:21;;;;;;;8.43;5.05;;;20.50;99.90;;;-144.05;61.69;56940.16;5100688;28;20479;-84
2023/06/24 06:03:47;;;;;;;8.15;5.15;;;20.60;99.90;;;-144.05;61.04;56929.53;5099278;28;20032;-84
2023/06/24 06:06:13;;;;;;;6.20;5.03;;;20.60;99.90;;;-144.05;61.00;56938.03;5099245;28;20032;-88
2023/06/24 06:08:39;;;;;;;9.30;4.15;;;20.70;99.90;;;-144.05;60.40;56912.56;5099883;28;20021;-84
2023/06/24 06:11:05;;;;;;;7.72;4.75;;;20.70;99.90;;;-144.05;60.48;56952.91;5100137;28;20032;-86
2023/06/24 06:13:32;;;;;;;7.13;5.30;;;20.80;99.90;;;-144.05;60.93;56938.03;5102024;28;20070;-84
2023/06/24 06:15:58;;;;;;;6.45;4.43;;;20.80;99.90;;;-144.05;60.55;56938.03;5101763;28;20066;-85
2023/06/24 06:18:23;;;;;;;9.43;4.43;;;20.80;99.90;;;-144.05;60.16;56931.66;5098550;28;20027;-86
2023/06/24 06:20:50;;;;;;;8.05;4.68;;;20.80;99.90;;;-144.05;60.32;56948.66;5097178;28;20075;-84
2023/06/24 06:23:17;;;;;;;8.18;4.57;;;20.80;99.90;;;-144.05;59.35;56933.78;5098264;28;20032;-86
2023/06/24 06:25:43;;;;;;;6.28;4.55;;;20.90;99.90;;;-144.05;59.17;56923.19;5099057;28;20032;-85
2023/06/24 06:28:09;;;;;;;7.95;4.95;;;21.00;99.90;;;-144.05;58.90;56938.03;5098889;28;20524;-84
2023/06/24 06:30:35;;;;;;;8.05;4.55;;;21.10;99.90;;;-144.05;57.90;56946.53;5104541;28;20032;-83
2023/06/24 06:33:01;;;;;;;6.85;4.63;;;21.20;99.90;;;-144.05;57.93;56955.03;5104271;28;20024;-82
2023/06/24 06:35:27;;;;;;;5.63;4.80;;;21.30;99.90;;;-144.05;57.47;56959.28;5105655;28;20051;-82
2023/06/24 06:37:54;;;;;;;6.53;4.53;;;21.30;99.90;;;-144.05;57.39;56950.78;5104706;28;20032;-83
2023/06/24 06:40:21;;;;;;;4.50;3.50;;;21.30;99.90;;;-144.05;57.15;56944.41;5103842;28;20032;-83
2023/06/24 06:42:48;;;;;;;7.18;4.38;;;21.40;99.90;;;-144.05;56.61;56965.66;5104152;28;20047;-81
2023/06/24 06:45:14;;;;;;;6.30;4.28;;;21.40;99.90;;;-144.05;55.76;56950.78;5103856;28;20035;-84
2023/06/24 06:47:40;;;;;;;5.53;4.40;;;21.40;99.90;;;-144.05;56.06;56965.66;5105643;28;20032;-83
2023/06/24 06:50:07;;;;;;;6.78;4.50;;;21.40;99.90;;;-144.05;56.19;56957.16;5102299;28;20036;-85
2023/06/24 06:52:34;;;;;;;5.85;4.35;;;21.60;99.90;;;-144.05;55.09;56955.03;5089952;28;20048;-83
2023/06/24 06:55:00;;;;;;;9.50;4.05;;;21.80;99.90;;;-144.05;54.39;56957.16;5088881;28;20104;-82
2023/06/24 06:57:26;;;;;;;6.30;4.32;;;22.20;99.90;;;-144.05;53.37;56978.41;5086458;28;20456;-83
2023/06/24 06:59:52;;;;;;;4.78;3.95;;;22.50;99.90;;;-144.05;53.19;56993.25;5084798;28;20027;-82
2023/06/24 07:02:19;;;;;;;7.72;5.03;;;22.70;99.90;;;-144.05;52.33;56999.63;5085961;28;20036;-81
2023/06/24 07:04:47;;;;;;;5.50;4.40;;;22.80;99.90;;;-144.05;52.50;56967.78;5083792;28;20024;-82
2023/06/24 07:07:13;;;;;;;6.60;4.40;;;23.20;99.90;;;-144.05;51.08;57010.25;5081685;28;20056;-83
2023/06/24 07:09:39;;;;;;;9.75;4.70;;;23.70;99.90;;;-144.05;49.33;57023.00;5088621;28;20025;-83
2023/06/24 07:12:07;;;;;;;5.78;4.53;;;23.80;99.90;;;-144.05;50.10;57018.75;5090255;28;20029;-84
2023/06/24 07:14:33;;;;;;;6.45;4.47;;;23.90;99.90;;;-144.05;50.60;56995.38;5084030;28;20029;-82
2023/06/24 07:17:00;;;;;;;5.43;4.10;;;23.90;99.90;;;-144.05;50.48;57033.63;5084539;28;20024;-84
2023/06/24 07:19:25;;;;;;;6.68;4.25;;;23.80;99.90;;;-144.05;50.50;57006.00;5085207;28;20257;-79
2023/06/24 07:21:52;;;;;;;8.63;4.50;;;23.50;99.90;;;-144.05;51.70;56999.63;5094977;28;20024;-77
2023/06/24 07:24:18;;;;;;;6.15;4.63;;;23.30;99.90;;;-144.05;51.76;57012.38;5093601;28;20062;-80
2023/06/24 07:26:44;;;;;;;7.00;4.60;;;23.50;99.90;;;-144.05;50.53;57010.25;5092920;28;20100;-86
2023/06/24 07:29:09;;;;;;;9.80;5.90;;;24.20;99.90;;;-144.05;47.96;57031.50;5093283;28;20031;-84
2023/06/24 07:31:37;;;;;;;8.00;6.25;;;24.60;99.90;;;-144.05;47.67;57048.50;5088694;28;20024;-84
2023/06/24 07:34:04;;;;;;;8.32;5.93;;;24.80;99.90;;;-144.05;47.48;57027.25;5084931;28;20069;-84
2023/06/24 07:36:30;;;;;;;10.32;6.15;;;24.80;99.90;;;-144.05;47.40;57029.38;5083899;28;20036;-84
2023/06/24 07:38:55;;;;;;;7.10;5.97;;;24.60;99.90;;;-144.05;46.66;57012.38;5082646;28;20120;-85
2023/06/24 07:41:21;;;;;;;10.40;5.28;;;24.80;99.90;;;-144.05;47.91;57046.38;5080581;28;20032;-81
2023/06/24 07:43:47;;;;;;;8.25;5.38;;;25.10;99.90;;;-144.05;47.11;57065.47;5080283;28;20029;-80
2023/06/24 07:46:13;;;;;;;8.88;6.80;;;25.30;99.90;;;-144.05;46.09;57046.38;5079250;28;20051;-81
2023/06/24 07:48:39;;;;;;;9.48;6.20;;;25.20;99.90;;;-144.05;46.21;57084.59;5078083;28;20021;-79
2023/06/24 07:51:05;;;;;;;10.80;6.53;;;25.40;99.90;;;-144.05;45.82;57048.50;5092691;28;20169;-79
2023/06/24 07:53:33;;;;;;;7.25;6.25;;;25.60;99.90;;;-144.05;46.76;57001.75;5098321;28;20020;-77
2023/06/24 07:55:59;;;;;;;6.65;5.82;;;25.30;99.90;;;-144.05;46.69;57048.50;5097196;28;20024;-80
2023/06/24 07:58:25;;;;;;;7.55;5.95;;;25.10;99.90;;;-144.05;47.40;57042.13;5098709;28;20500;-81
2023/06/24 08:00:51;;;;;;;9.07;5.72;;;24.90;99.90;;;-144.05;48.25;57046.38;5098306;28;20059;-83
2023/06/24 08:03:17;;;;;;;7.25;6.00;;;25.00;99.90;;;-144.05;47.75;57042.13;5103194;28;20027;-83
2023/06/24 08:05:43;;;;;;;8.45;5.57;;;24.90;99.90;;;-144.05;48.78;57048.50;5100940;28;20047;-85
2023/06/24 08:08:09;;;;;;;6.10;4.60;;;24.80;99.90;;;-144.05;48.34;57033.63;5098452;28;20024;-83
2023/06/24 08:10:35;;;;;;;7.22;5.55;;;25.10;99.90;;;-144.05;47.80;57080.34;5100345;28;20021;-82
2023/06/24 08:13:01;;;;;;;6.20;5.13;;;25.40;99.90;;;-144.05;47.53;57035.75;5099465;28;20028;-84
2023/06/24 08:15:27;;;;;;;6.85;5.35;;;25.70;99.90;;;-144.05;46.19;57069.72;5100039;28;20039;-83
2023/06/24 08:17:54;;;;;;;7.53;5.00;;;25.60;99.90;;;-144.05;46.35;57071.84;5099676;28;20083;-80
2023/06/24 08:20:24;;;;;;;7.55;6.15;;;25.40;99.90;;;-144.05;46.02;57044.25;5100446;28;20100;-83
2023/06/24 08:22:50;;;;;;;7.18;5.22;;;25.70;99.90;;;-144.05;44.80;57099.47;5098792;28;20034;-82
2023/06/24 08:25:16;;;;;;;9.18;6.03;;;26.10;99.90;;;-144.05;45.14;57056.97;5097561;28;20091;-83
2023/06/24 08:27:46;;;;;;;7.57;5.28;;;25.90;99.90;;;-144.05;44.93;57082.47;5097656;28;20490;-81
2023/06/24 08:30:15;;;;;;;8.48;6.43;;;25.80;99.90;;;-144.05;45.25;57073.97;5098302;28;20023;-80
2023/06/24 08:32:41;;;;;;;8.95;6.38;;;25.70;99.90;;;-144.05;45.02;57099.47;5097534;28;20439;-83
2023/06/24 08:35:09;;;;;;;9.38;6.53;;;26.10;99.90;;;-144.05;44.67;57114.34;5096034;28;20054;-83
2023/06/24 08:37:37;;;;;;;11.30;7.15;;;26.30;99.90;;;-144.05;46.83;57063.34;5094851;28;20435;-81
2023/06/24 08:40:04;;;;;;;9.20;7.38;;;25.40;99.90;;;-144.05;49.08;57042.13;5096746;28;20387;-83
2023/06/24 08:42:31;;;;;;;7.03;5.95;;;24.80;99.90;;;-144.05;48.61;57029.38;5096134;28;20028;-81
2023/06/24 08:44:57;;;;;;;11.77;8.77;;;25.20;99.90;;;-144.05;46.47;57044.25;5097557;28;20483;-83
2023/06/24 08:47:27;;;;;;;11.75;7.22;;;25.70;99.90;;;-144.05;46.09;57071.84;5096754;28;20189;-84
2023/06/24 08:50:04;;;;;;;9.57;7.25;;;26.00;99.90;;;-144.05;44.56;57120.72;5096049;28;20020;-83
2023/06/24 08:52:36;;;;;;;9.80;7.43;;;26.50;99.90;;;-144.05;44.61;57103.72;5081170;28;20024;-83
2023/06/24 08:55:13;;;;;;;10.48;7.80;;;26.70;99.90;;;-144.05;44.26;57101.59;5079762;28;20029;-83
2023/06/24 08:57:39;;;;;;;11.73;7.68;;;26.70;99.90;;;-144.05;44.55;57095.22;5080782;28;20031;-84
2023/06/24 09:00:10;;;;;;;11.85;6.95;;;26.70;99.90;;;-144.05;43.34;57139.81;5086311;28;20030;-84
2023/06/24 09:02:38;;;;;;;9.45;6.72;;;27.20;99.90;;;-144.05;41.75;57137.69;5082615;28;20025;-83
2023/06/24 09:05:08;;;;;;;7.10;6.40;;;27.60;99.90;;;-144.05;42.10;57124.97;5078413;28;20434;-80
2023/06/24 09:07:34;;;;;;;10.45;8.23;;;27.60;99.90;;;-144.05;41.08;57152.56;5079198;28;20040;-80
2023/06/24 09:10:00;;;;;;;9.43;7.10;;;27.70;99.90;;;-144.05;40.70;57146.19;5082209;28;20082;-84
2023/06/24 09:12:27;;;;;;;7.38;6.18;;;28.00;99.90;;;-144.05;41.45;57175.94;5082151;28;20099;-86
2023/06/24 09:14:53;;;;;;;5.82;5.22;;;28.50;99.90;;;-144.05;40.26;57212.03;5084707;28;20024;-83
2023/06/24 09:17:22;;;;;;;7.75;6.20;;;28.70;99.90;;;-144.05;39.60;57203.56;5083966;28;20084;-84
2023/06/24 09:19:50;;;;;;;9.77;6.75;;;28.70;99.90;;;-144.05;38.31;57212.03;5082254;28;20086;-80
2023/06/24 09:22:18;;;;;;;11.43;8.20;;;29.10;99.90;;;-144.05;38.21;57188.69;5084797;28;20028;-87
2023/06/24 09:24:47;;;;;;;8.50;6.07;;;28.80;99.90;;;-144.05;38.90;57212.03;5081126;28;20032;-83
2023/06/24 09:27:16;;;;;;;9.38;6.22;;;29.00;99.90;;;-144.05;37.94;57197.19;5080116;28;20040;-85
2023/06/24 09:29:43;;;;;;;11.60;7.07;;;29.10;99.90;;;-144.05;37.89;57237.53;5082042;28;20032;-89
2023/06/24 09:32:10;;;;;;;8.32;5.78;;;29.20;99.90;;;-144.05;37.46;57273.66;5081858;28;20032;-85
2023/06/24 09:34:36;;;;;;;9.98;6.28;;;29.50;99.90;;;-144.05;37.18;57218.41;5080999;28;20387;-86
2023/06/24 09:37:03;;;;;;;7.57;6.82;;;29.20;99.90;;;-144.05;36.16;57246.03;5080660;28;20032;-88
2023/06/24 09:39:40;;;;;;;7.90;6.00;;;29.20;99.90;;;-144.05;36.53;57197.19;5080494;28;20028;-85
2023/06/24 09:42:07;;;;;;;9.00;6.57;;;29.20;99.90;;;-144.05;36.64;57212.03;5078257;28;20024;-85
2023/06/24 09:44:33;;;;;;;8.55;5.65;;;29.20;99.90;;;-144.05;36.75;57222.66;5079201;28;20086;-84
2023/06/24 09:46:59;;;;;;;8.05;5.93;;;29.30;99.90;;;-144.05;37.42;57207.78;5078431;28;20027;-87
2023/06/24 09:49:25;;;;;;;8.20;6.20;;;29.20;99.90;;;-144.05;36.96;57205.66;5077851;28;20025;-85
2023/06/24 09:51:59;;;;;;;7.53;5.72;;;29.10;99.90;;;-144.05;37.11;57201.44;5099231;28;20436;-87
2023/06/24 09:54:28;;;;;;;7.57;6.43;;;28.70;98.70;;;-144.05;36.77;57180.19;5097341;28;20073;-82
2023/06/24 09:57:02;;;;;;;8.75;6.53;;;28.60;98.80;;;-144.05;36.46;57184.44;5099479;28;20313;-85
2023/06/24 09:59:33;;;;;;;7.93;5.70;;;28.40;97.80;;;-144.05;37.23;57182.31;5099054;28;20032;-88
2023/06/24 10:02:00;;;;;;;7.55;5.03;;;28.60;99.60;;;-144.05;37.19;57178.06;5099911;28;20020;-84
2023/06/24 10:04:28;;;;;;;8.73;5.78;;;28.50;98.70;;;-144.05;36.76;57163.19;5100204;28;20035;-86
2023/06/24 10:06:55;;;;;;;6.40;4.68;;;28.40;97.80;;;-144.05;36.80;57163.19;5097846;28;20036;-86